Time;durP1;ratioP1;P1;durP2;ratioP2;P2;SDS_P1;SDS_P2;PMS_P1;PMS_P2;Temp;Humidity;BMP_temperature;BMP_pressure;BME280_temperature;BME280_humidity;BME280_pressure;Samples;Min_cycle;Max_cycle;Signal;HPM_P1;HPM_P2
2022/08/22 00:00:20;;;;;;;2.20;0.50;;;;;;;21.00;61.56;100065.72;4923550;29;20444;-52
2022/08/22 00:02:51;;;;;;;5.23;0.90;;;;;;;21.10;60.98;100065.00;4946386;29;20574;-50
2022/08/22 00:05:46;;;;;;;1.87;0.60;;;;;;;21.09;61.28;100074.94;4944592;29;20447;-53
2022/08/22 00:08:22;;;;;;;1.13;0.60;;;;;;;21.25;61.07;100064.75;4941119;29;20489;-53
2022/08/22 00:11:07;;;;;;;1.17;0.70;;;;;;;21.08;61.49;100070.50;4941170;28;20459;-53
2022/08/22 00:14:00;;;;;;;2.70;0.63;;;;;;;20.93;62.83;100064.44;4943425;29;20514;-53
2022/08/22 00:16:48;;;;;;;2.27;0.47;;;;;;;20.91;62.50;100073.63;4939892;28;20449;-50
2022/08/22 00:19:24;;;;;;;1.83;0.50;;;;;;;20.77;62.59;100068.41;4945130;29;20491;-53
2022/08/22 00:22:12;;;;;;;0.97;0.70;;;;;;;20.74;62.61;100065.94;4933758;29;20490;-53
2022/08/22 00:24:47;;;;;;;4.40;0.50;;;;;;;20.83;62.41;100059.81;4948600;28;20489;-53
2022/08/22 00:27:21;;;;;;;2.50;0.70;;;;;;;20.85;62.08;100058.75;4931543;28;20463;-53
2022/08/22 00:30:02;;;;;;;0.90;0.50;;;;;;;20.84;62.44;100056.16;4943181;28;20488;-53
2022/08/22 00:32:39;;;;;;;0.73;0.60;;;;;;;20.77;62.62;100052.19;4946647;28;21337;-52
2022/08/22 00:35:21;;;;;;;0.73;0.57;;;;;;;20.93;62.46;100061.72;4948991;29;20451;-52
2022/08/22 00:38:07;;;;;;;1.07;0.70;;;;;;;20.93;62.97;100052.75;4932364;28;20460;-53
2022/08/22 00:40:58;;;;;;;2.43;0.80;;;;;;;20.83;62.91;100058.00;4941449;29;20966;-50
2022/08/22 00:43:47;;;;;;;1.27;0.63;;;;;;;20.86;63.22;100059.63;4941746;29;20474;-52
2022/08/22 00:46:36;;;;;;;1.07;0.70;;;;;;;20.90;63.26;100064.66;4936913;28;20509;-53
2022/08/22 00:49:34;;;;;;;1.40;0.63;;;;;;;20.73;64.17;100059.66;4933431;29;20490;-52
2022/08/22 00:52:36;;;;;;;0.87;0.60;;;;;;;20.61;64.10;100050.63;4923963;29;20483;-52
2022/08/22 00:55:19;;;;;;;1.73;0.63;;;;;;;20.50;64.48;100052.38;4935867;28;20451;-52
2022/08/22 00:58:08;;;;;;;1.97;0.70;;;;;;;20.41;64.34;100060.19;4946256;29;20459;-52
2022/08/22 01:00:43;;;;;;;1.13;0.70;;;;;;;20.55;63.87;100051.06;4945404;29;20439;-52
2022/08/22 01:03:48;;;;;;;2.40;0.50;;;;;;;20.49;63.70;100053.38;4969132;23;20478;-56
2022/08/22 01:06:20;;;;;;;0.60;0.40;;;;;;;20.34;64.19;100050.78;4953090;28;20454;-56
2022/08/22 01:09:14;;;;;;;1.00;0.90;;;;;;;20.29;63.62;100049.41;4976345;28;20497;-56
2022/08/22 01:12:04;;;;;;;0.60;0.40;;;;;;;20.21;63.42;100049.09;4965130;28;20465;-56
2022/08/22 01:15:09;;;;;;;0.90;0.83;;;;;;;20.16;63.29;100046.72;4967213;28;20483;-56
2022/08/22 01:18:00;;;;;;;0.70;0.40;;;;;;;20.13;63.66;100055.03;4967631;28;20463;-57
2022/08/22 01:20:40;;;;;;;2.20;0.70;;;;;;;19.92;64.65;100043.94;4969377;28;20983;-57
2022/08/22 01:23:31;;;;;;;6.70;0.53;;;;;;;19.82;65.24;100043.72;4959189;28;20463;-56
2022/08/22 01:26:21;;;;;;;0.67;0.57;;;;;;;19.92;64.44;100043.09;4962945;28;20450;-56
2022/08/22 01:29:32;;;;;;;1.87;0.70;;;;;;;19.90;64.34;100042.34;4944996;28;20482;-56
2022/08/22 01:32:07;;;;;;;0.73;0.40;;;;;;;19.75;64.61;100041.59;4962748;28;20947;-56
2022/08/22 01:34:58;;;;;;;0.60;0.30;;;;;;;19.67;64.04;100036.72;4966431;28;20481;-56
2022/08/22 01:37:49;;;;;;;0.60;0.40;;;;;;;19.79;64.43;100038.56;4968936;28;20455;-57
2022/08/22 01:40:18;;;;;;;0.63;0.50;;;;;;;19.88;63.80;100038.88;4969507;28;20443;-56
2022/08/22 01:43:05;;;;;;;1.03;0.60;;;;;;;19.91;64.53;100036.81;4963621;28;20463;-56
2022/08/22 01:45:49;;;;;;;1.33;0.60;;;;;;;19.61;65.38;100030.91;4969358;28;20451;-57
2022/08/22 01:48:29;;;;;;;0.60;0.40;;;;;;;19.63;64.97;100039.75;4969240;28;20451;-56
2022/08/22 01:51:18;;;;;;;0.60;0.40;;;;;;;19.42;65.29;100037.53;4966822;28;21073;-56
2022/08/22 01:54:04;;;;;;;0.83;0.50;;;;;;;19.43;65.60;100025.78;4968299;28;20471;-57
2022/08/22 01:56:38;;;;;;;2.40;0.50;;;;;;;19.16;66.59;100033.91;4969144;28;20987;-56
2022/08/22 01:59:13;;;;;;;0.60;0.43;;;;;;;18.96;67.27;100034.44;4957501;28;20457;-57
2022/08/22 02:01:59;;;;;;;0.83;0.50;;;;;;;19.02;66.85;100022.34;4988546;28;20450;-56
2022/08/22 02:04:38;;;;;;;8.80;0.70;;;;;;;19.05;66.82;100028.44;4962041;28;20479;-56
2022/08/22 02:07:18;;;;;;;0.83;0.80;;;;;;;18.88;67.75;100026.84;4965630;28;20473;-57
2022/08/22 02:10:18;;;;;;;0.80;0.40;;;;;;;18.84;67.51;100029.84;4962024;28;20500;-56
2022/08/22 02:13:22;;;;;;;0.60;0.40;;;;;;;18.71;68.17;100037.03;4963372;28;20470;-57
2022/08/22 02:16:02;;;;;;;2.20;0.90;;;;;;;18.66;67.93;100033.78;4948012;28;20974;-57
2022/08/22 02:18:44;;;;;;;0.80;0.60;;;;;;;18.51;68.27;100031.09;4958541;28;20846;-58
2022/08/22 02:21:36;;;;;;;5.50;0.80;;;;;;;18.53;68.07;100031.84;4968566;28;20455;-56
2022/08/22 02:24:18;;;;;;;2.13;1.20;;;;;;;18.43;68.65;100032.56;4957675;28;20513;-56
2022/08/22 02:27:09;;;;;;;6.83;0.80;;;;;;;18.41;68.67;100032.66;4966288;28;20458;-56
2022/08/22 02:30:08;;;;;;;0.80;0.57;;;;;;;18.57;68.38;100029.81;4959950;28;20502;-56
2022/08/22 02:32:42;;;;;;;0.97;0.90;;;;;;;18.47;69.17;100032.25;4961776;28;20465;-57
2022/08/22 02:35:11;;;;;;;1.90;0.70;;;;;;;18.32;68.91;100034.09;4966537;28;20473;-57
2022/08/22 02:37:54;;;;;;;1.47;0.60;;;;;;;18.40;69.16;100028.25;4967171;28;20455;-56
2022/08/22 02:40:36;;;;;;;1.13;0.60;;;;;;;18.29;68.93;100028.06;4968372;28;20455;-56
2022/08/22 02:43:22;;;;;;;1.53;0.97;;;;;;;18.16;69.85;100035.19;4966898;28;20450;-56
2022/08/22 02:45:58;;;;;;;0.70;0.63;;;;;;;18.04;70.04;100035.00;4962668;28;20888;-56
2022/08/22 02:48:37;;;;;;;4.20;1.23;;;;;;;18.01;70.07;100021.75;4961297;28;20562;-56
2022/08/22 02:51:23;;;;;;;0.57;0.40;;;;;;;17.94;70.50;100025.78;4964099;28;20578;-57
2022/08/22 02:54:27;;;;;;;0.83;0.50;;;;;;;17.80;71.25;100035.69;4967495;28;20502;-56
2022/08/22 02:57:10;;;;;;;2.10;1.00;;;;;;;17.65;70.73;100024.03;4967589;28;20455;-57
2022/08/22 03:00:12;;;;;;;9.60;0.77;;;;;;;17.84;70.99;100029.19;4972540;28;20433;-57
2022/08/22 03:02:58;;;;;;;5.07;1.00;;;;;;;17.74;71.21;100034.25;4972331;28;20456;-57
2022/08/22 03:05:40;;;;;;;2.87;1.03;;;;;;;17.77;70.76;100023.31;4965350;28;20454;-57
2022/08/22 03:08:15;;;;;;;1.57;0.77;;;;;;;17.56;71.58;100035.38;4968051;28;20466;-58
2022/08/22 03:10:49;;;;;;;1.40;1.10;;;;;;;17.48;71.85;100031.31;4967582;28;20569;-57
2022/08/22 03:13:24;;;;;;;0.80;0.50;;;;;;;17.46;71.42;100032.38;4962810;28;20489;-57
2022/08/22 03:15:59;;;;;;;0.60;0.50;;;;;;;17.22;72.89;100026.66;4961354;28;20450;-57
2022/08/22 03:18:53;;;;;;;1.40;0.60;;;;;;;17.22;72.49;100034.72;4963509;28;20461;-56
2022/08/22 03:21:51;;;;;;;0.87;0.73;;;;;;;17.26;72.68;100030.88;4959335;28;20851;-56
2022/08/22 03:24:36;;;;;;;0.90;0.50;;;;;;;17.10;72.70;100035.44;4967516;28;20467;-57
2022/08/22 03:27:44;;;;;;;0.80;0.63;;;;;;;17.01;73.20;100030.66;4967232;28;20454;-57
2022/08/22 03:30:20;;;;;;;2.00;0.60;;;;;;;16.98;73.27;100030.81;4926703;29;20883;-57
2022/08/22 03:32:58;;;;;;;0.60;0.50;;;;;;;16.85;74.23;100033.34;4956487;28;20466;-57
2022/08/22 03:35:41;;;;;;;0.60;0.40;;;;;;;16.79;74.39;100029.22;4970131;28;20461;-57
2022/08/22 03:38:25;;;;;;;0.90;0.70;;;;;;;17.07;74.65;100036.50;4961187;28;20482;-56
2022/08/22 03:41:14;;;;;;;0.63;0.43;;;;;;;17.15;73.72;100034.22;4963053;28;20446;-57
2022/08/22 03:44:12;;;;;;;1.83;0.67;;;;;;;16.85;75.23;100026.16;4961159;28;20478;-57
2022/08/22 03:46:54;;;;;;;1.47;0.50;;;;;;;16.93;74.81;100032.91;4959056;28;20468;-56
2022/08/22 03:49:54;;;;;;;0.70;0.67;;;;;;;16.74;75.14;100027.75;4965711;28;20447;-56
2022/08/22 03:53:05;;;;;;;0.80;0.60;;;;;;;16.67;75.26;100027.22;4962898;28;20454;-56
2022/08/22 03:55:55;;;;;;;1.03;0.43;;;;;;;16.66;74.89;100021.91;4962629;28;20464;-56
2022/08/22 03:58:55;;;;;;;0.70;0.40;;;;;;;16.63;75.00;100024.78;4918834;28;20461;-56
2022/08/22 04:01:43;;;;;;;9.53;0.73;;;;;;;16.56;74.91;100040.38;4984137;28;20514;-56
2022/08/22 04:04:09;;;;;;;0.53;0.40;;;;;;;16.59;75.10;100041.06;4960761;28;20493;-56
2022/08/22 04:06:54;;;;;;;0.60;0.60;;;;;;;16.69;74.04;100041.41;4970227;28;20470;-56
2022/08/22 04:09:42;;;;;;;1.43;0.63;;;;;;;16.43;75.49;100044.69;4970971;28;20478;-56
2022/08/22 04:12:40;;;;;;;0.67;0.57;;;;;;;16.45;75.64;100037.44;4966234;28;20457;-56
2022/08/22 04:15:28;;;;;;;0.90;0.63;;;;;;;16.39;75.59;100040.47;4953206;28;20474;-56
2022/08/22 04:18:39;;;;;;;1.67;1.10;;;;;;;16.39;76.09;100043.16;4964262;28;20550;-57
2022/08/22 04:21:31;;;;;;;1.43;1.30;;;;;;;16.18;76.56;100045.22;4967050;28;20978;-57
2022/08/22 04:24:20;;;;;;;3.17;0.67;;;;;;;16.08;77.22;100036.81;4967099;28;20483;-56
2022/08/22 04:26:58;;;;;;;0.70;0.63;;;;;;;15.93;78.19;100046.56;4965675;28;20489;-56
2022/08/22 04:29:44;;;;;;;1.20;0.80;;;;;;;16.71;74.63;100044.00;4958055;28;20459;-57
2022/08/22 04:32:13;;;;;;;0.70;0.50;;;;;;;16.50;74.72;100033.53;4961458;28;20931;-56
2022/08/22 04:34:47;;;;;;;0.73;0.73;;;;;;;15.99;76.91;100045.38;4975539;28;20477;-55
2022/08/22 04:37:21;;;;;;;0.70;0.60;;;;;;;15.79;77.81;100042.91;4969154;28;20471;-55
2022/08/22 04:40:06;;;;;;;0.97;0.60;;;;;;;15.80;77.80;100037.47;4964970;28;20488;-55
2022/08/22 04:42:48;;;;;;;10.73;0.73;;;;;;;15.72;78.36;100047.72;4965370;28;20461;-55
2022/08/22 04:45:36;;;;;;;2.00;1.30;;;;;;;15.84;78.46;100041.69;4964067;28;20456;-55
2022/08/22 04:48:21;;;;;;;0.83;0.60;;;;;;;15.62;79.25;100052.72;4964170;28;20457;-55
2022/08/22 04:51:02;;;;;;;2.30;1.00;;;;;;;15.85;78.74;100056.84;4966261;28;20496;-55
2022/08/22 04:54:04;;;;;;;2.60;0.53;;;;;;;15.66;78.85;100059.66;4963915;28;20469;-55
2022/08/22 04:56:53;;;;;;;2.60;0.80;;;;;;;15.79;78.69;100064.34;4963629;28;20454;-55
2022/08/22 04:59:22;;;;;;;4.93;1.07;;;;;;;15.84;78.85;100065.81;4964688;28;20940;-55
2022/08/22 05:01:53;;;;;;;0.80;0.70;;;;;;;16.06;77.71;100062.84;4988619;28;20823;-55
2022/08/22 05:04:28;;;;;;;1.53;1.10;;;;;;;16.02;78.05;100066.63;4963270;28;20487;-55
2022/08/22 05:07:04;;;;;;;2.20;0.80;;;;;;;16.06;78.55;100064.69;4976321;28;20959;-55
2022/08/22 05:09:34;;;;;;;3.50;0.50;;;;;;;15.96;78.94;100065.16;4971955;28;20453;-55
2022/08/22 05:12:07;;;;;;;1.23;1.00;;;;;;;16.18;78.65;100064.88;4968530;28;20450;-56
2022/08/22 05:14:39;;;;;;;0.70;0.57;;;;;;;16.64;77.06;100061.41;4963485;28;20471;-55
2022/08/22 05:17:09;;;;;;;0.80;0.50;;;;;;;16.76;77.21;100056.22;4963329;28;20455;-56
2022/08/22 05:19:39;;;;;;;2.40;0.93;;;;;;;17.34;74.85;100050.09;4969042;28;20544;-55
2022/08/22 05:22:17;;;;;;;7.90;1.40;;;;;;;17.79;73.09;100050.97;4969821;28;20464;-56
2022/08/22 05:24:48;;;;;;;0.60;0.40;;;;;;;18.38;70.62;100049.00;4966303;28;20560;-55
2022/08/22 05:27:20;;;;;;;3.40;0.60;;;;;;;18.81;69.06;100051.63;4963217;28;20451;-55
2022/08/22 05:29:52;;;;;;;0.73;0.73;;;;;;;19.24;67.80;100047.75;4965072;28;20959;-55
2022/08/22 05:32:27;;;;;;;8.93;0.73;;;;;;;19.47;66.94;100051.56;4968145;28;20838;-55
2022/08/22 05:35:00;;;;;;;6.93;1.30;;;;;;;19.82;65.65;100045.56;4969393;28;20470;-56
2022/08/22 05:37:39;;;;;;;1.37;0.50;;;;;;;19.91;65.26;100054.84;4964237;28;20462;-55
2022/08/22 05:40:09;;;;;;;0.70;0.60;;;;;;;20.27;64.25;100060.28;4962796;28;20453;-55
2022/08/22 05:42:36;;;;;;;1.40;0.60;;;;;;;20.58;62.88;100063.50;4965975;28;20475;-55
2022/08/22 05:45:06;;;;;;;1.77;0.93;;;;;;;20.49;63.21;100056.06;4969267;28;20472;-55
2022/08/22 05:47:41;;;;;;;19.67;0.93;;;;;;;20.53;63.34;100062.97;4966929;28;20445;-56
2022/08/22 05:50:19;;;;;;;7.30;1.73;;;;;;;20.81;62.34;100068.03;4962660;28;20498;-55
2022/08/22 05:53:07;;;;;;;1.07;0.97;;;;;;;20.70;62.77;100074.28;4963127;28;20451;-55
2022/08/22 05:55:40;;;;;;;1.03;0.97;;;;;;;21.00;61.50;100073.81;4965678;28;20456;-56
2022/08/22 05:58:25;;;;;;;3.83;2.00;;;;;;;21.09;61.60;100074.06;4962835;28;20482;-56
2022/08/22 06:01:24;;;;;;;3.00;2.17;;;;;;;21.09;61.76;100072.25;4987767;28;20449;-55
2022/08/22 06:04:05;;;;;;;0.90;0.80;;;;;;;20.93;62.38;100083.34;4966112;28;21006;-55
2022/08/22 06:06:49;;;;;;;21.73;1.00;;;;;;;20.76;63.51;100070.25;4972793;28;20953;-55
2022/08/22 06:09:34;;;;;;;1.10;0.70;;;;;;;20.99;63.14;100077.50;4973393;28;20457;-56
2022/08/22 06:12:10;;;;;;;8.03;0.80;;;;;;;20.86;63.05;100081.22;4966725;28;20494;-55
2022/08/22 06:14:53;;;;;;;7.40;1.03;;;;;;;20.63;64.49;100074.81;4963020;28;20496;-55
2022/08/22 06:17:33;;;;;;;0.90;0.70;;;;;;;20.61;64.70;100077.63;4962126;28;20459;-55
2022/08/22 06:20:04;;;;;;;9.00;1.13;;;;;;;20.72;64.56;100082.25;4965866;28;20461;-55
2022/08/22 06:22:40;;;;;;;1.63;1.23;;;;;;;20.74;64.46;100082.13;4968726;28;20465;-55
2022/08/22 06:25:29;;;;;;;11.60;1.20;;;;;;;20.59;65.47;100078.72;4966948;28;20486;-56
2022/08/22 06:28:00;;;;;;;4.27;1.03;;;;;;;20.58;65.92;100090.50;4963232;28;20455;-55
2022/08/22 06:30:27;;;;;;;2.03;0.90;;;;;;;20.47;65.96;100091.28;4961822;28;20497;-55
2022/08/22 06:33:00;;;;;;;1.70;1.40;;;;;;;20.79;64.84;100085.34;4966645;28;20451;-55
2022/08/22 06:38:31;;;;;;;4.90;1.77;;;;;;;20.80;65.76;100087.94;4961690;28;20451;-55
2022/08/22 06:41:01;;;;;;;1.40;0.60;;;;;;;20.62;66.50;100086.59;4967166;28;20458;-55
2022/08/22 06:43:37;;;;;;;1.70;1.60;;;;;;;20.94;65.53;100089.59;4968607;28;20471;-55
2022/08/22 06:46:06;;;;;;;1.43;0.90;;;;;;;21.05;65.23;100091.50;4964835;28;20453;-55
2022/08/22 06:48:35;;;;;;;2.50;1.10;;;;;;;21.38;63.63;100090.81;4961815;28;20460;-54
2022/08/22 06:51:05;;;;;;;1.00;0.90;;;;;;;21.45;63.72;100087.53;4964493;28;20822;-55
2022/08/22 06:53:37;;;;;;;2.40;0.60;;;;;;;21.80;62.23;100098.34;4968057;28;20477;-56
2022/08/22 06:56:20;;;;;;;0.60;0.40;;;;;;;21.73;61.34;100105.19;4967500;28;20481;-55
2022/08/22 06:58:51;;;;;;;5.70;1.30;;;;;;;21.96;61.13;100102.53;4962695;28;20453;-55
2022/08/22 07:01:23;;;;;;;2.50;1.03;;;;;;;21.52;61.82;100105.03;4987476;28;20455;-55
2022/08/22 07:03:53;;;;;;;1.03;0.93;;;;;;;21.54;61.94;100100.38;4964867;28;20866;-55
2022/08/22 07:06:40;;;;;;;1.17;0.83;;;;;;;21.62;61.79;100113.28;4971805;28;20565;-55
2022/08/22 07:09:17;;;;;;;0.83;0.83;;;;;;;21.80;61.47;100111.00;4974116;28;20475;-55
2022/08/22 07:11:44;;;;;;;4.00;0.83;;;;;;;21.75;61.28;100113.19;4961699;28;20494;-55
2022/08/22 07:14:14;;;;;;;1.93;0.63;;;;;;;21.93;61.38;100106.38;4961055;28;20471;-55
2022/08/22 07:16:55;;;;;;;1.10;0.60;;;;;;;22.08;60.52;100107.03;4965130;28;20489;-56
2022/08/22 07:19:31;;;;;;;3.23;0.93;;;;;;;22.07;61.03;100111.59;4967974;28;20530;-56
2022/08/22 07:22:09;;;;;;;1.47;1.37;;;;;;;22.54;59.35;100104.19;4966988;28;20454;-56
2022/08/22 07:24:38;;;;;;;10.93;0.87;;;;;;;22.42;59.32;100103.31;4954629;28;20506;-56
2022/08/22 07:27:14;;;;;;;3.77;1.10;;;;;;;22.59;59.85;100109.22;4967176;28;20458;-56
2022/08/22 07:29:46;;;;;;;0.90;0.63;;;;;;;23.08;58.18;100105.22;4963427;28;20445;-56
2022/08/22 07:32:43;;;;;;;1.47;1.30;;;;;;;22.77;58.77;100110.44;4960479;28;20501;-56
2022/08/22 07:35:14;;;;;;;6.47;0.97;;;;;;;22.69;59.65;100104.78;4965283;28;20470;-56
2022/08/22 07:37:43;;;;;;;11.47;1.30;;;;;;;22.81;58.61;100102.91;4966043;28;20461;-56
2022/08/22 07:40:30;;;;;;;0.90;0.80;;;;;;;23.07;57.83;100103.50;4967361;28;21005;-56
2022/08/22 07:43:34;;;;;;;2.93;1.77;;;;;;;23.51;56.93;100100.59;4965303;28;20445;-56
2022/08/22 07:46:19;;;;;;;0.70;0.70;;;;;;;23.55;55.14;100099.34;4963532;28;20538;-56
2022/08/22 07:48:50;;;;;;;2.40;0.80;;;;;;;23.70;55.16;100096.31;4960700;28;20850;-56
2022/08/22 07:51:48;;;;;;;1.23;0.80;;;;;;;23.97;54.72;100112.06;4971463;28;20490;-56
2022/08/22 07:54:42;;;;;;;1.40;0.70;;;;;;;23.97;53.60;100104.78;4964581;28;20870;-56
2022/08/22 07:57:23;;;;;;;4.80;1.10;;;;;;;24.33;53.49;100098.00;4961572;28;20445;-56
2022/08/22 07:59:53;;;;;;;1.03;0.90;;;;;;;24.10;53.66;100105.44;4965993;28;20437;-56
2022/08/22 08:02:20;;;;;;;2.30;2.07;;;;;;;24.08;53.02;100098.41;4981310;28;20547;-56
2022/08/22 08:04:50;;;;;;;3.27;1.07;;;;;;;24.35;52.90;100095.16;4959979;28;20832;-56
2022/08/22 08:07:21;;;;;;;1.87;1.77;;;;;;;24.49;52.43;100094.78;4976565;28;20466;-56
2022/08/22 08:10:13;;;;;;;2.23;1.30;;;;;;;24.72;51.58;100100.88;4964492;28;20454;-56
2022/08/22 08:12:45;;;;;;;1.47;1.07;;;;;;;24.80;51.36;100087.41;4964156;28;20959;-56
2022/08/22 08:15:29;;;;;;;1.20;1.10;;;;;;;24.76;52.04;100102.31;4964798;28;20682;-56
2022/08/22 08:18:01;;;;;;;4.37;1.10;;;;;;;25.10;50.58;100091.97;4964638;28;20549;-56
2022/08/22 08:20:29;;;;;;;1.00;0.90;;;;;;;25.51;50.02;100092.69;4963965;28;20455;-56
2022/08/22 08:22:57;;;;;;;10.53;1.03;;;;;;;25.46;49.78;100090.38;4969807;28;20566;-56
2022/08/22 08:25:30;;;;;;;0.93;0.93;;;;;;;25.30;49.71;100090.09;4970566;28;20454;-56
2022/08/22 08:30:55;;;;;;;1.83;1.73;;;;;;;25.83;49.04;100103.28;4963704;28;20486;-56
2022/08/22 08:33:26;;;;;;;0.70;0.70;;;;;;;25.72;48.66;100101.56;4964206;28;20471;-56
2022/08/22 08:36:04;;;;;;;1.43;1.33;;;;;;;25.46;48.91;100095.81;4968695;28;20480;-56
2022/08/22 08:38:50;;;;;;;2.83;1.50;;;;;;;25.40;48.40;100100.00;4964013;28;20453;-56
2022/08/22 08:41:43;;;;;;;1.90;1.80;;;;;;;26.06;47.47;100098.38;4966062;28;20454;-56
2022/08/22 08:44:51;;;;;;;2.97;1.73;;;;;;;25.96;47.19;100098.38;4965489;28;20470;-56
2022/08/22 08:47:26;;;;;;;6.20;1.03;;;;;;;26.12;46.91;100092.31;4965254;28;20442;-56
2022/08/22 08:50:14;;;;;;;1.63;1.17;;;;;;;26.35;46.64;100090.94;4963770;28;20545;-56
2022/08/22 08:53:30;;;;;;;3.70;0.97;;;;;;;25.86;47.17;100089.38;4964716;28;20581;-56
2022/08/22 08:56:05;;;;;;;1.10;1.00;;;;;;;26.14;46.90;100093.00;4957573;28;20481;-56
2022/08/22 08:58:46;;;;;;;1.00;0.90;;;;;;;26.56;45.51;100091.56;4964212;28;20566;-56
2022/08/22 09:01:36;;;;;;;1.30;1.20;;;;;;;26.36;44.98;100089.97;4989458;28;20537;-56
2022/08/22 09:04:28;;;;;;;4.30;1.70;;;;;;;26.54;45.35;100087.28;4964047;28;20988;-56
2022/08/22 09:07:01;;;;;;;4.13;2.27;;;;;;;26.62;45.02;100084.69;4965791;28;20480;-56
2022/08/22 09:10:07;;;;;;;5.97;1.70;;;;;;;27.02;44.85;100091.66;4971638;28;20454;-56
2022/08/22 09:12:49;;;;;;;1.07;0.93;;;;;;;26.70;44.36;100090.22;4969921;28;20497;-56
2022/08/22 09:16:00;;;;;;;0.70;0.60;;;;;;;27.09;44.50;100076.34;4969635;28;20939;-56
2022/08/22 09:18:57;;;;;;;1.13;1.03;;;;;;;27.44;44.18;100080.97;4967104;28;20826;-56
2022/08/22 09:21:32;;;;;;;3.17;1.80;;;;;;;27.27;44.06;100077.19;4964971;28;20950;-54
2022/08/22 09:24:11;;;;;;;1.20;0.97;;;;;;;27.54;44.03;100073.50;4963246;28;20806;-54
2022/08/22 09:27:04;;;;;;;1.10;0.80;;;;;;;27.71;42.96;100071.81;4964689;28;20991;-53
2022/08/22 09:29:46;;;;;;;4.17;1.03;;;;;;;27.94;42.91;100067.53;4965526;28;20457;-54
2022/08/22 09:32:51;;;;;;;1.73;1.00;;;;;;;27.87;42.46;100066.47;4963161;28;20490;-54
2022/08/22 09:35:38;;;;;;;5.03;1.53;;;;;;;27.44;42.96;100059.97;4966846;28;20450;-54
2022/08/22 09:38:24;;;;;;;5.60;1.07;;;;;;;27.41;42.49;100067.59;4963961;28;20447;-53
2022/08/22 09:40:56;;;;;;;5.33;1.20;;;;;;;27.84;42.20;100064.06;4964243;28;20940;-54
2022/08/22 09:43:40;;;;;;;0.83;0.83;;;;;;;28.03;40.33;100065.72;4962603;28;20995;-53
2022/08/22 09:46:52;;;;;;;1.70;1.60;;;;;;;27.60;41.53;100053.78;4964073;28;20547;-54
2022/08/22 09:49:33;;;;;;;7.43;1.90;;;;;;;28.10;42.19;100061.34;4967207;28;20509;-54
2022/08/22 09:52:19;;;;;;;1.37;0.97;;;;;;;27.67;42.21;100045.81;4962685;28;20642;-53
2022/08/22 09:55:08;;;;;;;1.47;1.37;;;;;;;27.67;41.16;100043.94;4962254;28;20555;-53
2022/08/22 09:57:51;;;;;;;4.67;1.53;;;;;;;28.33;40.98;100039.75;4962977;28;20457;-54
2022/08/22 10:00:21;;;;;;;1.20;1.03;;;;;;;28.34;40.22;100038.75;4972251;28;20441;-54
2022/08/22 10:03:10;;;;;;;3.57;1.20;;;;;;;28.18;40.86;100038.63;4976817;28;20470;-54
2022/08/22 10:05:47;;;;;;;2.10;1.57;;;;;;;27.86;40.99;100042.91;4967575;28;20488;-53
2022/08/22 10:08:38;;;;;;;1.90;1.50;;;;;;;27.67;41.60;100051.28;4974940;28;20465;-53
2022/08/22 10:11:07;;;;;;;1.90;1.07;;;;;;;27.88;41.85;100040.88;4961949;28;20499;-54
2022/08/22 10:13:39;;;;;;;26.33;1.80;;;;;;;27.98;41.54;100032.56;4964736;28;20538;-53
2022/08/22 10:16:19;;;;;;;1.37;1.23;;;;;;;28.22;41.77;100042.75;4968666;28;20951;-53
2022/08/22 10:19:09;;;;;;;2.10;1.90;;;;;;;28.89;40.24;100041.84;4968002;28;20823;-53
2022/08/22 10:22:09;;;;;;;1.17;1.07;;;;;;;28.65;39.68;100038.19;4965008;28;20494;-53
2022/08/22 10:24:50;;;;;;;3.53;1.37;;;;;;;28.58;40.46;100035.25;4962953;28;20517;-53
2022/08/22 10:27:26;;;;;;;4.40;1.20;;;;;;;28.47;40.62;100032.81;4962056;28;20842;-53
2022/08/22 10:30:24;;;;;;;11.13;1.30;;;;;;;28.90;40.15;100029.88;4964302;28;20422;-54
2022/08/22 10:33:08;;;;;;;1.83;1.50;;;;;;;29.30;39.01;100033.69;4964368;28;20490;-53
2022/08/22 10:35:49;;;;;;;2.40;1.77;;;;;;;29.35;39.55;100034.06;4966153;28;20940;-54
2022/08/22 10:38:21;;;;;;;0.77;0.73;;;;;;;28.77;39.96;100031.34;4961959;28;20947;-53
2022/08/22 10:41:07;;;;;;;1.77;1.63;;;;;;;29.06;39.79;100020.88;4962631;28;20454;-53
2022/08/22 10:43:50;;;;;;;1.20;1.10;;;;;;;29.68;39.32;100025.84;4961547;28;20501;-54
2022/08/22 10:46:50;;;;;;;4.30;1.30;;;;;;;29.08;38.73;100017.97;4961333;28;20551;-54
2022/08/22 10:49:49;;;;;;;3.73;1.00;;;;;;;29.13;38.52;100019.16;4964391;28;20468;-54
2022/08/22 10:52:47;;;;;;;11.50;1.17;;;;;;;28.70;39.30;100017.50;4963395;28;20501;-53
2022/08/22 10:55:24;;;;;;;5.80;1.20;;;;;;;28.62;39.06;100007.38;4960639;28;20568;-53
2022/08/22 10:58:09;;;;;;;1.43;1.33;;;;;;;28.71;38.92;100008.28;4960228;28;20478;-53
2022/08/22 11:00:41;;;;;;;1.83;1.20;;;;;;;29.38;37.15;100011.78;4984636;28;20442;-53
2022/08/22 11:03:26;;;;;;;1.77;1.17;;;;;;;29.70;36.82;99997.22;4970257;28;20525;-53
2022/08/22 11:06:26;;;;;;;1.27;1.10;;;;;;;29.99;36.05;99996.63;4967769;28;20464;-54
2022/08/22 11:09:28;;;;;;;1.27;1.03;;;;;;;30.39;35.10;100003.03;4968590;28;20454;-54
2022/08/22 11:12:18;;;;;;;1.33;1.23;;;;;;;30.49;34.20;99998.19;4964672;28;20490;-54
2022/08/22 11:14:44;;;;;;;1.20;1.00;;;;;;;29.98;34.30;99999.56;4960893;28;20470;-54
2022/08/22 11:17:52;;;;;;;6.53;1.10;;;;;;;29.93;34.29;99991.00;4961651;28;20452;-54
2022/08/22 11:20:57;;;;;;;1.63;1.17;;;;;;;29.86;35.28;99988.09;4965779;28;20940;-53
2022/08/22 11:23:41;;;;;;;2.20;1.10;;;;;;;30.04;35.26;99991.50;4964540;28;20497;-53
2022/08/22 11:26:26;;;;;;;1.37;1.13;;;;;;;30.00;35.21;100002.97;4960865;28;20450;-53
2022/08/22 11:29:09;;;;;;;3.43;1.70;;;;;;;29.78;33.34;99999.97;4961035;28;20442;-53
2022/08/22 11:31:58;;;;;;;3.30;1.00;;;;;;;29.91;32.78;99990.34;4961604;28;21046;-53
2022/08/22 11:34:33;;;;;;;1.60;1.47;;;;;;;30.26;33.23;99986.28;4964663;28;20475;-53
2022/08/22 11:37:37;;;;;;;1.30;1.20;;;;;;;30.14;33.50;99988.56;4971105;28;20947;-53
2022/08/22 11:40:25;;;;;;;1.10;1.00;;;;;;;30.22;33.51;99987.69;4967165;28;20482;-53
2022/08/22 11:43:05;;;;;;;1.27;1.17;;;;;;;29.76;33.20;99979.25;4964330;28;20453;-53
2022/08/22 11:45:50;;;;;;;1.70;0.93;;;;;;;30.01;32.88;99978.13;4966092;28;20495;-53
2022/08/22 11:48:25;;;;;;;4.70;1.87;;;;;;;30.28;32.90;99985.06;4967021;28;20955;-53
2022/08/22 11:51:15;;;;;;;1.10;0.90;;;;;;;30.49;32.08;99973.50;4964072;28;20944;-53
2022/08/22 11:54:06;;;;;;;1.50;1.27;;;;;;;30.45;32.49;99972.16;4961828;28;20471;-53
2022/08/22 11:56:47;;;;;;;1.40;0.67;;;;;;;30.84;31.84;99973.97;4960728;28;20462;-54
2022/08/22 11:59:31;;;;;;;0.80;0.70;;;;;;;31.07;32.16;99973.97;4961756;28;20966;-53
2022/08/22 12:02:06;;;;;;;0.73;0.63;;;;;;;31.13;30.93;99973.25;4962142;28;20446;-53
2022/08/22 12:04:40;;;;;;;1.97;1.20;;;;;;;31.21;31.15;99974.06;4960307;28;20486;-53
2022/08/22 12:07:27;;;;;;;1.00;0.93;;;;;;;31.27;30.59;99966.13;4973382;28;20497;-54
2022/08/22 12:09:58;;;;;;;0.70;0.60;;;;;;;31.08;29.71;99967.44;4959825;28;20454;-54
2022/08/22 12:12:43;;;;;;;2.90;1.30;;;;;;;31.07;30.23;99961.09;4960091;28;20494;-53
2022/08/22 12:15:19;;;;;;;1.10;1.00;;;;;;;31.56;30.63;99966.19;4963321;28;20471;-53
2022/08/22 12:18:11;;;;;;;1.27;1.17;;;;;;;31.24;29.84;99962.69;4967784;28;20510;-53
2022/08/22 12:21:17;;;;;;;2.73;1.23;;;;;;;31.34;30.28;99956.09;4966763;28;20452;-53
2022/08/22 12:24:06;;;;;;;1.20;1.00;;;;;;;30.99;30.73;99957.59;4967192;28;20975;-53
2022/08/22 12:26:55;;;;;;;2.70;1.13;;;;;;;30.52;31.03;99958.56;4965757;28;20895;-53
2022/08/22 12:29:47;;;;;;;1.63;1.00;;;;;;;30.71;31.19;99952.66;4960678;28;20446;-53
2022/08/22 12:32:32;;;;;;;3.70;1.33;;;;;;;30.36;31.01;99948.53;4958800;28;20490;-52
2022/08/22 12:35:21;;;;;;;1.57;1.00;;;;;;;30.71;30.36;99946.31;4964403;28;20507;-53
2022/08/22 12:38:17;;;;;;;1.13;1.03;;;;;;;31.23;30.60;99940.91;4953825;28;20439;-53
2022/08/22 12:41:16;;;;;;;1.57;0.90;;;;;;;30.75;30.10;99947.63;4962346;28;20501;-52
2022/08/22 12:44:27;;;;;;;4.23;1.53;;;;;;;31.06;29.43;99937.44;4960255;28;20557;-52
2022/08/22 12:47:12;;;;;;;1.90;1.03;;;;;;;31.33;29.19;99926.91;4959878;28;20456;-53